sensor_id;sensor_type;location;lat;lon;timestamp;P1;durP1;ratioP1;P2;durP2;ratioP2
6077;SDS011;3067;49.470;10.394;2023-07-16T00:00:15;6.50;;;5.90;;
6077;SDS011;3067;49.470;10.394;2023-07-16T00:02:44;6.00;;;5.40;;
6077;SDS011;3067;49.470;10.394;2023-07-16T00:05:12;6.27;;;5.53;;
6077;SDS011;3067;49.470;10.394;2023-07-16T00:07:39;9.17;;;5.43;;
6077;SDS011;3067;49.470;10.394;2023-07-16T00:10:08;11.37;;;5.80;;
6077;SDS011;3067;49.470;10.394;2023-07-16T00:12:36;5.57;;;5.07;;
6077;SDS011;3067;49.470;10.394;2023-07-16T00:15:03;6.37;;;5.10;;
6077;SDS011;3067;49.470;10.394;2023-07-16T00:17:31;6.50;;;4.40;;
6077;SDS011;3067;49.470;10.394;2023-07-16T00:19:57;6.73;;;4.20;;
6077;SDS011;3067;49.470;10.394;2023-07-16T00:22:25;5.00;;;4.20;;
6077;SDS011;3067;49.470;10.394;2023-07-16T00:24:52;6.33;;;3.90;;
6077;SDS011;3067;49.470;10.394;2023-07-16T00:27:20;7.97;;;3.90;;
6077;SDS011;3067;49.470;10.394;2023-07-16T00:29:48;4.37;;;3.87;;
6077;SDS011;3067;49.470;10.394;2023-07-16T00:32:15;3.60;;;3.23;;
6077;SDS011;3067;49.470;10.394;2023-07-16T00:34:42;3.50;;;3.30;;
6077;SDS011;3067;49.470;10.394;2023-07-16T00:37:10;3.67;;;3.37;;
6077;SDS011;3067;49.470;10.394;2023-07-16T00:39:37;3.30;;;3.00;;
6077;SDS011;3067;49.470;10.394;2023-07-16T00:42:04;6.80;;;2.87;;
6077;SDS011;3067;49.470;10.394;2023-07-16T00:44:33;3.60;;;3.00;;
6077;SDS011;3067;49.470;10.394;2023-07-16T00:47:00;14.10;;;2.93;;
6077;SDS011;3067;49.470;10.394;2023-07-16T00:49:27;3.17;;;2.97;;
6077;SDS011;3067;49.470;10.394;2023-07-16T00:51:55;3.37;;;3.00;;
6077;SDS011;3067;49.470;10.394;2023-07-16T00:54:23;4.47;;;2.50;;
6077;SDS011;3067;49.470;10.394;2023-07-16T00:56:51;6.10;;;2.40;;
6077;SDS011;3067;49.470;10.394;2023-07-16T00:59:18;3.30;;;2.77;;
6077;SDS011;3067;49.470;10.394;2023-07-16T01:01:47;2.93;;;2.53;;
6077;SDS011;3067;49.470;10.394;2023-07-16T01:04:14;5.30;;;2.67;;
6077;SDS011;3067;49.470;10.394;2023-07-16T01:06:44;5.20;;;2.70;;
6077;SDS011;3067;49.470;10.394;2023-07-16T01:09:13;18.23;;;2.90;;
6077;SDS011;3067;49.470;10.394;2023-07-16T01:11:42;3.30;;;3.00;;
6077;SDS011;3067;49.470;10.394;2023-07-16T01:14:10;2.97;;;2.40;;
6077;SDS011;3067;49.470;10.394;2023-07-16T01:16:37;4.23;;;2.80;;
6077;SDS011;3067;49.470;10.394;2023-07-16T01:19:05;2.63;;;2.43;;
6077;SDS011;3067;49.470;10.394;2023-07-16T01:21:34;2.70;;;2.50;;
6077;SDS011;3067;49.470;10.394;2023-07-16T01:24:13;3.43;;;2.60;;
6077;SDS011;3067;49.470;10.394;2023-07-16T01:26:51;2.90;;;2.70;;
6077;SDS011;3067;49.470;10.394;2023-07-16T01:29:31;2.40;;;2.20;;
6077;SDS011;3067;49.470;10.394;2023-07-16T01:31:59;6.07;;;2.40;;
6077;SDS011;3067;49.470;10.394;2023-07-16T01:34:27;9.83;;;2.57;;
6077;SDS011;3067;49.470;10.394;2023-07-16T01:36:55;2.10;;;2.00;;
6077;SDS011;3067;49.470;10.394;2023-07-16T01:39:22;2.20;;;2.03;;
6077;SDS011;3067;49.470;10.394;2023-07-16T01:41:50;2.27;;;2.13;;
6077;SDS011;3067;49.470;10.394;2023-07-16T01:44:17;7.23;;;5.73;;
6077;SDS011;3067;49.470;10.394;2023-07-16T01:46:45;3.13;;;2.83;;
6077;SDS011;3067;49.470;10.394;2023-07-16T01:49:16;2.60;;;2.50;;
6077;SDS011;3067;49.470;10.394;2023-07-16T01:51:44;2.40;;;2.30;;
6077;SDS011;3067;49.470;10.394;2023-07-16T01:54:11;3.63;;;2.20;;
6077;SDS011;3067;49.470;10.394;2023-07-16T01:56:38;2.20;;;2.10;;
6077;SDS011;3067;49.470;10.394;2023-07-16T01:59:05;2.00;;;1.90;;
6077;SDS011;3067;49.470;10.394;2023-07-16T02:01:33;1.70;;;1.60;;
6077;SDS011;3067;49.470;10.394;2023-07-16T02:04:01;3.13;;;1.80;;
6077;SDS011;3067;49.470;10.394;2023-07-16T02:06:29;1.60;;;1.50;;
6077;SDS011;3067;49.470;10.394;2023-07-16T02:08:56;1.67;;;1.20;;
6077;SDS011;3067;49.470;10.394;2023-07-16T02:11:23;1.40;;;1.30;;
6077;SDS011;3067;49.470;10.394;2023-07-16T02:13:50;1.67;;;1.57;;
6077;SDS011;3067;49.470;10.394;2023-07-16T02:16:18;1.30;;;1.30;;
6077;SDS011;3067;49.470;10.394;2023-07-16T02:18:45;1.20;;;1.20;;
6077;SDS011;3067;49.470;10.394;2023-07-16T02:21:14;1.20;;;1.20;;
6077;SDS011;3067;49.470;10.394;2023-07-16T02:23:41;2.20;;;1.43;;
6077;SDS011;3067;49.470;10.394;2023-07-16T02:26:08;1.40;;;1.40;;
6077;SDS011;3067;49.470;10.394;2023-07-16T02:28:35;1.80;;;1.70;;
6077;SDS011;3067;49.470;10.394;2023-07-16T02:31:03;1.67;;;1.60;;
6077;SDS011;3067;49.470;10.394;2023-07-16T02:33:30;2.33;;;1.20;;
6077;SDS011;3067;49.470;10.394;2023-07-16T02:35:57;1.47;;;1.47;;
6077;SDS011;3067;49.470;10.394;2023-07-16T02:38:26;1.63;;;1.30;;
6077;SDS011;3067;49.470;10.394;2023-07-16T02:40:53;2.13;;;1.27;;
6077;SDS011;3067;49.470;10.394;2023-07-16T02:43:21;1.57;;;1.47;;
6077;SDS011;3067;49.470;10.394;2023-07-16T02:45:48;1.33;;;1.27;;
6077;SDS011;3067;49.470;10.394;2023-07-16T02:48:15;1.50;;;1.40;;
6077;SDS011;3067;49.470;10.394;2023-07-16T02:50:42;1.63;;;1.63;;
6077;SDS011;3067;49.470;10.394;2023-07-16T02:53:10;1.40;;;1.40;;
6077;SDS011;3067;49.470;10.394;2023-07-16T02:55:38;1.57;;;1.47;;
6077;SDS011;3067;49.470;10.394;2023-07-16T02:58:06;1.50;;;1.40;;
6077;SDS011;3067;49.470;10.394;2023-07-16T03:00:33;1.97;;;1.60;;
6077;SDS011;3067;49.470;10.394;2023-07-16T03:03:01;2.10;;;1.70;;
6077;SDS011;3067;49.470;10.394;2023-07-16T03:05:28;1.50;;;1.40;;
6077;SDS011;3067;49.470;10.394;2023-07-16T03:07:55;3.07;;;1.57;;
6077;SDS011;3067;49.470;10.394;2023-07-16T03:10:23;1.50;;;1.13;;
6077;SDS011;3067;49.470;10.394;2023-07-16T03:12:53;1.37;;;1.37;;
6077;SDS011;3067;49.470;10.394;2023-07-16T03:15:20;6.07;;;1.47;;
6077;SDS011;3067;49.470;10.394;2023-07-16T03:17:47;1.40;;;1.40;;
6077;SDS011;3067;49.470;10.394;2023-07-16T03:20:15;1.73;;;1.50;;
6077;SDS011;3067;49.470;10.394;2023-07-16T03:22:42;1.90;;;1.33;;
6077;SDS011;3067;49.470;10.394;2023-07-16T03:25:09;3.70;;;1.80;;
6077;SDS011;3067;49.470;10.394;2023-07-16T03:27:36;2.30;;;1.57;;
6077;SDS011;3067;49.470;10.394;2023-07-16T03:30:06;1.83;;;1.30;;
6077;SDS011;3067;49.470;10.394;2023-07-16T03:32:33;2.03;;;1.70;;
6077;SDS011;3067;49.470;10.394;2023-07-16T03:35:01;1.53;;;1.53;;
6077;SDS011;3067;49.470;10.394;2023-07-16T03:37:28;2.30;;;1.70;;
6077;SDS011;3067;49.470;10.394;2023-07-16T03:39:55;2.27;;;1.70;;
6077;SDS011;3067;49.470;10.394;2023-07-16T03:42:23;1.53;;;1.43;;
6077;SDS011;3067;49.470;10.394;2023-07-16T03:44:51;3.90;;;1.50;;
6077;SDS011;3067;49.470;10.394;2023-07-16T03:47:19;1.63;;;1.53;;
6077;SDS011;3067;49.470;10.394;2023-07-16T03:49:47;1.83;;;1.70;;
6077;SDS011;3067;49.470;10.394;2023-07-16T03:52:14;5.40;;;1.60;;
6077;SDS011;3067;49.470;10.394;2023-07-16T03:54:41;1.90;;;1.80;;
6077;SDS011;3067;49.470;10.394;2023-07-16T03:57:08;1.80;;;1.70;;
6077;SDS011;3067;49.470;10.394;2023-07-16T03:59:36;6.20;;;1.80;;
6077;SDS011;3067;49.470;10.394;2023-07-16T04:02:03;3.13;;;2.00;;
6077;SDS011;3067;49.470;10.394;2023-07-16T04:04:32;5.43;;;1.70;;
6077;SDS011;3067;49.470;10.394;2023-07-16T04:06:59;2.03;;;1.57;;
6077;SDS011;3067;49.470;10.394;2023-07-16T04:09:26;9.43;;;1.60;;
6077;SDS011;3067;49.470;10.394;2023-07-16T04:11:54;2.90;;;2.03;;
6077;SDS011;3067;49.470;10.394;2023-07-16T04:14:21;4.53;;;1.80;;
6077;SDS011;3067;49.470;10.394;2023-07-16T04:16:48;2.90;;;1.70;;
6077;SDS011;3067;49.470;10.394;2023-07-16T04:19:16;7.30;;;2.10;;
6077;SDS011;3067;49.470;10.394;2023-07-16T04:21:44;2.60;;;1.77;;
6077;SDS011;3067;49.470;10.394;2023-07-16T04:24:12;5.13;;;2.20;;
6077;SDS011;3067;49.470;10.394;2023-07-16T04:26:39;5.50;;;2.03;;
6077;SDS011;3067;49.470;10.394;2023-07-16T04:29:06;9.10;;;2.03;;
6077;SDS011;3067;49.470;10.394;2023-07-16T04:31:33;5.20;;;1.83;;
6077;SDS011;3067;49.470;10.394;2023-07-16T04:34:01;6.10;;;1.87;;
6077;SDS011;3067;49.470;10.394;2023-07-16T04:36:28;2.47;;;1.67;;
6077;SDS011;3067;49.470;10.394;2023-07-16T04:38:57;3.33;;;1.63;;
6077;SDS011;3067;49.470;10.394;2023-07-16T04:41:24;4.70;;;1.90;;
6077;SDS011;3067;49.470;10.394;2023-07-16T04:43:51;9.80;;;1.87;;
6077;SDS011;3067;49.470;10.394;2023-07-16T04:46:19;7.03;;;1.70;;
6077;SDS011;3067;49.470;10.394;2023-07-16T04:48:46;5.43;;;1.90;;
6077;SDS011;3067;49.470;10.394;2023-07-16T04:51:13;6.90;;;1.90;;
6077;SDS011;3067;49.470;10.394;2023-07-16T04:53:40;4.17;;;1.80;;
6077;SDS011;3067;49.470;10.394;2023-07-16T04:56:12;9.27;;;1.83;;
6077;SDS011;3067;49.470;10.394;2023-07-16T04:58:39;4.97;;;1.63;;
6077;SDS011;3067;49.470;10.394;2023-07-16T05:01:07;3.50;;;1.80;;
6077;SDS011;3067;49.470;10.394;2023-07-16T05:03:34;2.83;;;1.70;;
6077;SDS011;3067;49.470;10.394;2023-07-16T05:06:01;4.97;;;1.90;;
6077;SDS011;3067;49.470;10.394;2023-07-16T05:08:29;4.50;;;2.20;;
6077;SDS011;3067;49.470;10.394;2023-07-16T05:10:56;4.20;;;1.67;;
6077;SDS011;3067;49.470;10.394;2023-07-16T05:13:25;6.13;;;2.13;;
6077;SDS011;3067;49.470;10.394;2023-07-16T05:15:52;3.90;;;1.90;;
6077;SDS011;3067;49.470;10.394;2023-07-16T05:18:20;3.77;;;2.20;;
6077;SDS011;3067;49.470;10.394;2023-07-16T05:20:47;3.27;;;1.50;;
6077;SDS011;3067;49.470;10.394;2023-07-16T05:23:14;4.30;;;1.80;;
6077;SDS011;3067;49.470;10.394;2023-07-16T05:25:45;2.17;;;1.83;;
6077;SDS011;3067;49.470;10.394;2023-07-16T05:28:13;9.20;;;2.07;;
6077;SDS011;3067;49.470;10.394;2023-07-16T05:30:41;4.20;;;2.20;;
6077;SDS011;3067;49.470;10.394;2023-07-16T05:33:09;11.03;;;2.27;;
6077;SDS011;3067;49.470;10.394;2023-07-16T05:35:36;4.53;;;1.90;;
6077;SDS011;3067;49.470;10.394;2023-07-16T05:38:04;2.10;;;2.00;;
6077;SDS011;3067;49.470;10.394;2023-07-16T05:40:31;2.70;;;2.00;;
6077;SDS011;3067;49.470;10.394;2023-07-16T05:42:58;6.93;;;2.17;;
6077;SDS011;3067;49.470;10.394;2023-07-16T05:45:25;6.90;;;3.00;;
6077;SDS011;3067;49.470;10.394;2023-07-16T05:47:54;3.03;;;2.17;;
6077;SDS011;3067;49.470;10.394;2023-07-16T05:50:21;5.60;;;2.30;;
6077;SDS011;3067;49.470;10.394;2023-07-16T05:52:49;3.37;;;1.77;;
6077;SDS011;3067;49.470;10.394;2023-07-16T05:55:16;2.80;;;1.73;;
6077;SDS011;3067;49.470;10.394;2023-07-16T05:57:43;3.57;;;2.20;;
6077;SDS011;3067;49.470;10.394;2023-07-16T06:00:12;3.13;;;2.50;;
6077;SDS011;3067;49.470;10.394;2023-07-16T06:02:39;7.00;;;2.40;;
6077;SDS011;3067;49.470;10.394;2023-07-16T06:05:08;3.73;;;1.90;;
6077;SDS011;3067;49.470;10.394;2023-07-16T06:07:36;5.33;;;2.63;;
6077;SDS011;3067;49.470;10.394;2023-07-16T06:10:03;2.40;;;2.20;;
6077;SDS011;3067;49.470;10.394;2023-07-16T06:12:30;4.07;;;2.00;;
6077;SDS011;3067;49.470;10.394;2023-07-16T06:14:58;7.80;;;2.23;;
6077;SDS011;3067;49.470;10.394;2023-07-16T06:17:25;5.27;;;2.30;;
6077;SDS011;3067;49.470;10.394;2023-07-16T06:19:52;7.33;;;2.50;;
6077;SDS011;3067;49.470;10.394;2023-07-16T06:22:21;6.30;;;2.90;;
6077;SDS011;3067;49.470;10.394;2023-07-16T06:24:48;3.93;;;2.30;;
6077;SDS011;3067;49.470;10.394;2023-07-16T06:27:15;6.60;;;2.90;;
6077;SDS011;3067;49.470;10.394;2023-07-16T06:29:43;9.90;;;2.90;;
6077;SDS011;3067;49.470;10.394;2023-07-16T06:32:10;3.67;;;2.50;;
6077;SDS011;3067;49.470;10.394;2023-07-16T06:34:37;3.40;;;2.10;;
6077;SDS011;3067;49.470;10.394;2023-07-16T06:37:05;8.97;;;2.40;;
6077;SDS011;3067;49.470;10.394;2023-07-16T06:39:34;3.70;;;2.90;;
6077;SDS011;3067;49.470;10.394;2023-07-16T06:42:01;3.77;;;2.40;;
6077;SDS011;3067;49.470;10.394;2023-07-16T06:44:28;6.37;;;2.40;;
6077;SDS011;3067;49.470;10.394;2023-07-16T06:46:55;7.60;;;2.70;;
6077;SDS011;3067;49.470;10.394;2023-07-16T06:49:23;7.00;;;2.23;;
6077;SDS011;3067;49.470;10.394;2023-07-16T06:51:50;7.83;;;2.40;;
6077;SDS011;3067;49.470;10.394;2023-07-16T06:54:17;5.50;;;2.30;;
6077;SDS011;3067;49.470;10.394;2023-07-16T06:56:46;5.37;;;2.30;;
6077;SDS011;3067;49.470;10.394;2023-07-16T06:59:13;12.57;;;2.57;;
6077;SDS011;3067;49.470;10.394;2023-07-16T07:01:40;9.30;;;2.53;;
6077;SDS011;3067;49.470;10.394;2023-07-16T07:04:08;9.43;;;2.23;;
6077;SDS011;3067;49.470;10.394;2023-07-16T07:06:35;18.83;;;2.83;;
6077;SDS011;3067;49.470;10.394;2023-07-16T07:09:02;6.30;;;2.47;;
6077;SDS011;3067;49.470;10.394;2023-07-16T07:11:30;6.50;;;2.40;;
6077;SDS011;3067;49.470;10.394;2023-07-16T07:13:59;4.27;;;2.20;;
6077;SDS011;3067;49.470;10.394;2023-07-16T07:16:26;5.50;;;2.10;;
6077;SDS011;3067;49.470;10.394;2023-07-16T07:18:54;7.70;;;3.00;;
6077;SDS011;3067;49.470;10.394;2023-07-16T07:21:21;6.07;;;2.50;;
6077;SDS011;3067;49.470;10.394;2023-07-16T07:23:49;10.57;;;2.73;;
6077;SDS011;3067;49.470;10.394;2023-07-16T07:26:16;2.27;;;2.17;;
6077;SDS011;3067;49.470;10.394;2023-07-16T07:28:43;5.13;;;2.80;;
6077;SDS011;3067;49.470;10.394;2023-07-16T07:31:12;5.23;;;2.60;;
6077;SDS011;3067;49.470;10.394;2023-07-16T07:33:39;4.00;;;2.70;;
6077;SDS011;3067;49.470;10.394;2023-07-16T07:36:07;5.30;;;2.40;;
6077;SDS011;3067;49.470;10.394;2023-07-16T07:38:34;5.60;;;2.50;;
6077;SDS011;3067;49.470;10.394;2023-07-16T07:41:01;7.87;;;2.70;;
6077;SDS011;3067;49.470;10.394;2023-07-16T07:43:28;4.07;;;2.40;;
6077;SDS011;3067;49.470;10.394;2023-07-16T07:45:56;10.73;;;2.63;;
6077;SDS011;3067;49.470;10.394;2023-07-16T07:48:24;6.70;;;2.90;;
6077;SDS011;3067;49.470;10.394;2023-07-16T07:50:52;23.03;;;3.17;;
6077;SDS011;3067;49.470;10.394;2023-07-16T07:53:19;9.40;;;2.50;;
6077;SDS011;3067;49.470;10.394;2023-07-16T07:58:15;9.10;;;2.63;;
6077;SDS011;3067;49.470;10.394;2023-07-16T08:00:43;4.97;;;2.77;;
6077;SDS011;3067;49.470;10.394;2023-07-16T08:03:10;3.83;;;2.77;;
6077;SDS011;3067;49.470;10.394;2023-07-16T08:05:39;5.43;;;2.43;;
6077;SDS011;3067;49.470;10.394;2023-07-16T08:08:06;6.13;;;2.60;;
6077;SDS011;3067;49.470;10.394;2023-07-16T08:10:33;8.00;;;2.33;;
6077;SDS011;3067;49.470;10.394;2023-07-16T08:13:01;6.70;;;2.60;;
6077;SDS011;3067;49.470;10.394;2023-07-16T08:15:28;3.77;;;2.20;;
6077;SDS011;3067;49.470;10.394;2023-07-16T08:17:55;6.60;;;2.43;;
6077;SDS011;3067;49.470;10.394;2023-07-16T08:20:24;2.20;;;1.97;;
6077;SDS011;3067;49.470;10.394;2023-07-16T08:22:53;2.10;;;1.93;;
6077;SDS011;3067;49.470;10.394;2023-07-16T08:25:20;9.50;;;2.43;;
6077;SDS011;3067;49.470;10.394;2023-07-16T08:27:47;6.83;;;2.47;;
6077;SDS011;3067;49.470;10.394;2023-07-16T08:30:15;2.20;;;2.00;;
6077;SDS011;3067;49.470;10.394;2023-07-16T08:32:43;9.03;;;2.30;;
6077;SDS011;3067;49.470;10.394;2023-07-16T08:35:10;2.40;;;1.83;;
6077;SDS011;3067;49.470;10.394;2023-07-16T08:37:41;3.80;;;2.00;;
6077;SDS011;3067;49.470;10.394;2023-07-16T08:40:10;3.37;;;2.13;;
6077;SDS011;3067;49.470;10.394;2023-07-16T08:42:38;3.20;;;2.13;;
6077;SDS011;3067;49.470;10.394;2023-07-16T08:45:06;2.80;;;2.40;;
6077;SDS011;3067;49.470;10.394;2023-07-16T08:47:34;8.93;;;2.20;;
6077;SDS011;3067;49.470;10.394;2023-07-16T08:50:02;4.70;;;2.00;;
6077;SDS011;3067;49.470;10.394;2023-07-16T08:52:30;7.63;;;2.40;;
6077;SDS011;3067;49.470;10.394;2023-07-16T08:54:57;3.37;;;1.70;;
6077;SDS011;3067;49.470;10.394;2023-07-16T08:57:26;6.03;;;2.37;;
6077;SDS011;3067;49.470;10.394;2023-07-16T08:59:54;5.03;;;2.20;;
6077;SDS011;3067;49.470;10.394;2023-07-16T09:02:22;8.60;;;1.90;;
6077;SDS011;3067;49.470;10.394;2023-07-16T09:04:50;2.50;;;1.90;;
6077;SDS011;3067;49.470;10.394;2023-07-16T09:07:17;4.40;;;2.10;;
6077;SDS011;3067;49.470;10.394;2023-07-16T09:09:54;4.23;;;1.77;;
6077;SDS011;3067;49.470;10.394;2023-07-16T09:12:23;5.23;;;2.00;;
6077;SDS011;3067;49.470;10.394;2023-07-16T09:14:52;8.53;;;2.10;;
6077;SDS011;3067;49.470;10.394;2023-07-16T09:17:20;5.23;;;2.10;;
6077;SDS011;3067;49.470;10.394;2023-07-16T09:19:48;4.17;;;2.10;;
6077;SDS011;3067;49.470;10.394;2023-07-16T09:22:16;4.33;;;1.50;;
6077;SDS011;3067;49.470;10.394;2023-07-16T09:24:44;6.47;;;1.70;;
6077;SDS011;3067;49.470;10.394;2023-07-16T09:27:12;5.53;;;1.67;;
6077;SDS011;3067;49.470;10.394;2023-07-16T09:29:39;2.50;;;1.70;;
6077;SDS011;3067;49.470;10.394;2023-07-16T09:32:08;6.60;;;1.93;;
6077;SDS011;3067;49.470;10.394;2023-07-16T09:34:36;3.80;;;1.90;;
6077;SDS011;3067;49.470;10.394;2023-07-16T09:37:04;4.87;;;2.00;;
6077;SDS011;3067;49.470;10.394;2023-07-16T09:39:32;4.63;;;1.90;;
6077;SDS011;3067;49.470;10.394;2023-07-16T09:42:00;3.60;;;1.50;;
6077;SDS011;3067;49.470;10.394;2023-07-16T09:44:29;3.70;;;2.00;;
6077;SDS011;3067;49.470;10.394;2023-07-16T09:46:56;52.77;;;2.70;;
6077;SDS011;3067;49.470;10.394;2023-07-16T09:49:25;4.13;;;1.80;;
6077;SDS011;3067;49.470;10.394;2023-07-16T09:51:55;9.47;;;2.30;;
6077;SDS011;3067;49.470;10.394;2023-07-16T09:54:24;13.43;;;1.87;;
6077;SDS011;3067;49.470;10.394;2023-07-16T09:56:52;1.90;;;1.50;;
6077;SDS011;3067;49.470;10.394;2023-07-16T09:59:23;2.47;;;1.80;;
6077;SDS011;3067;49.470;10.394;2023-07-16T10:01:51;6.43;;;2.17;;
6077;SDS011;3067;49.470;10.394;2023-07-16T10:04:20;4.50;;;1.90;;
6077;SDS011;3067;49.470;10.394;2023-07-16T10:06:55;4.40;;;1.80;;
6077;SDS011;3067;49.470;10.394;2023-07-16T10:09:35;8.87;;;1.70;;
6077;SDS011;3067;49.470;10.394;2023-07-16T10:12:11;4.03;;;2.17;;
6077;SDS011;3067;49.470;10.394;2023-07-16T10:14:39;4.17;;;1.70;;
6077;SDS011;3067;49.470;10.394;2023-07-16T10:17:07;2.70;;;1.80;;
6077;SDS011;3067;49.470;10.394;2023-07-16T10:19:45;3.37;;;1.67;;
6077;SDS011;3067;49.470;10.394;2023-07-16T10:22:14;7.03;;;1.77;;
6077;SDS011;3067;49.470;10.394;2023-07-16T10:24:41;6.83;;;1.50;;
6077;SDS011;3067;49.470;10.394;2023-07-16T10:27:09;2.87;;;1.57;;
6077;SDS011;3067;49.470;10.394;2023-07-16T10:29:36;2.40;;;1.63;;
6077;SDS011;3067;49.470;10.394;2023-07-16T10:32:04;9.43;;;1.70;;
6077;SDS011;3067;49.470;10.394;2023-07-16T10:34:34;1.97;;;1.40;;
6077;SDS011;3067;49.470;10.394;2023-07-16T10:37:02;4.73;;;1.73;;
6077;SDS011;3067;49.470;10.394;2023-07-16T10:39:31;2.90;;;1.57;;
6077;SDS011;3067;49.470;10.394;2023-07-16T10:41:58;3.87;;;1.80;;
6077;SDS011;3067;49.470;10.394;2023-07-16T10:44:26;1.70;;;1.60;;
6077;SDS011;3067;49.470;10.394;2023-07-16T10:46:54;2.47;;;1.67;;
6077;SDS011;3067;49.470;10.394;2023-07-16T10:49:28;2.17;;;1.60;;
6077;SDS011;3067;49.470;10.394;2023-07-16T10:51:57;2.80;;;1.77;;
6077;SDS011;3067;49.470;10.394;2023-07-16T10:54:24;1.70;;;1.60;;
6077;SDS011;3067;49.470;10.394;2023-07-16T10:56:53;2.60;;;1.73;;
6077;SDS011;3067;49.470;10.394;2023-07-16T10:59:20;2.53;;;1.60;;
6077;SDS011;3067;49.470;10.394;2023-07-16T11:01:47;3.87;;;2.20;;
6077;SDS011;3067;49.470;10.394;2023-07-16T11:04:15;2.60;;;1.77;;
6077;SDS011;3067;49.470;10.394;2023-07-16T11:06:42;3.33;;;1.70;;
6077;SDS011;3067;49.470;10.394;2023-07-16T11:09:09;1.80;;;1.70;;
6077;SDS011;3067;49.470;10.394;2023-07-16T11:11:37;7.90;;;1.57;;
6077;SDS011;3067;49.470;10.394;2023-07-16T11:14:07;3.23;;;1.33;;
6077;SDS011;3067;49.470;10.394;2023-07-16T11:16:34;3.73;;;1.87;;
6077;SDS011;3067;49.470;10.394;2023-07-16T11:19:03;4.77;;;1.80;;
6077;SDS011;3067;49.470;10.394;2023-07-16T11:21:30;1.97;;;1.70;;
6077;SDS011;3067;49.470;10.394;2023-07-16T11:24:06;5.60;;;1.80;;
6077;SDS011;3067;49.470;10.394;2023-07-16T11:26:34;4.00;;;1.80;;
6077;SDS011;3067;49.470;10.394;2023-07-16T11:29:01;3.83;;;3.10;;
6077;SDS011;3067;49.470;10.394;2023-07-16T11:31:40;2.93;;;1.73;;
6077;SDS011;3067;49.470;10.394;2023-07-16T11:34:07;2.50;;;1.43;;
6077;SDS011;3067;49.470;10.394;2023-07-16T11:36:35;3.43;;;2.40;;
6077;SDS011;3067;49.470;10.394;2023-07-16T11:39:02;2.80;;;2.27;;
6077;SDS011;3067;49.470;10.394;2023-07-16T11:41:30;1.67;;;1.57;;
6077;SDS011;3067;49.470;10.394;2023-07-16T11:43:59;3.13;;;1.43;;
6077;SDS011;3067;49.470;10.394;2023-07-16T11:46:30;1.80;;;1.70;;
6077;SDS011;3067;49.470;10.394;2023-07-16T11:48:58;1.60;;;1.50;;
6077;SDS011;3067;49.470;10.394;2023-07-16T11:51:26;3.03;;;1.57;;
6077;SDS011;3067;49.470;10.394;2023-07-16T11:53:53;2.50;;;1.53;;
6077;SDS011;3067;49.470;10.394;2023-07-16T11:56:21;3.20;;;1.83;;
6077;SDS011;3067;49.470;10.394;2023-07-16T11:58:48;1.90;;;1.70;;
6077;SDS011;3067;49.470;10.394;2023-07-16T12:01:16;4.80;;;1.90;;
6077;SDS011;3067;49.470;10.394;2023-07-16T12:03:43;2.90;;;1.60;;
6077;SDS011;3067;49.470;10.394;2023-07-16T12:06:12;1.63;;;1.53;;
6077;SDS011;3067;49.470;10.394;2023-07-16T12:08:39;2.77;;;1.60;;
6077;SDS011;3067;49.470;10.394;2023-07-16T12:11:07;4.70;;;1.70;;
6077;SDS011;3067;49.470;10.394;2023-07-16T12:13:34;1.70;;;1.60;;
6077;SDS011;3067;49.470;10.394;2023-07-16T12:16:01;3.60;;;1.47;;
6077;SDS011;3067;49.470;10.394;2023-07-16T12:18:28;4.30;;;1.50;;
6077;SDS011;3067;49.470;10.394;2023-07-16T12:20:56;3.63;;;1.60;;
6077;SDS011;3067;49.470;10.394;2023-07-16T12:23:25;1.50;;;1.40;;
6077;SDS011;3067;49.470;10.394;2023-07-16T12:25:52;1.70;;;1.60;;
6077;SDS011;3067;49.470;10.394;2023-07-16T12:28:19;2.17;;;1.70;;
6077;SDS011;3067;49.470;10.394;2023-07-16T12:30:46;3.10;;;1.80;;
6077;SDS011;3067;49.470;10.394;2023-07-16T12:33:14;2.30;;;1.50;;
6077;SDS011;3067;49.470;10.394;2023-07-16T12:35:41;3.33;;;1.70;;
6077;SDS011;3067;49.470;10.394;2023-07-16T12:38:09;3.23;;;1.50;;
6077;SDS011;3067;49.470;10.394;2023-07-16T12:40:37;1.80;;;1.70;;
6077;SDS011;3067;49.470;10.394;2023-07-16T12:43:06;4.10;;;1.60;;
6077;SDS011;3067;49.470;10.394;2023-07-16T12:45:33;1.80;;;1.40;;
6077;SDS011;3067;49.470;10.394;2023-07-16T12:48:00;1.83;;;1.60;;
6077;SDS011;3067;49.470;10.394;2023-07-16T12:50:27;1.63;;;1.53;;
6077;SDS011;3067;49.470;10.394;2023-07-16T12:52:55;1.67;;;1.57;;
6077;SDS011;3067;49.470;10.394;2023-07-16T12:55:22;2.97;;;1.47;;
6077;SDS011;3067;49.470;10.394;2023-07-16T12:57:51;3.83;;;1.90;;
6077;SDS011;3067;49.470;10.394;2023-07-16T13:00:18;2.03;;;1.60;;
6077;SDS011;3067;49.470;10.394;2023-07-16T13:02:45;1.60;;;1.50;;
6077;SDS011;3067;49.470;10.394;2023-07-16T13:05:13;1.70;;;1.70;;
6077;SDS011;3067;49.470;10.394;2023-07-16T13:07:40;1.90;;;1.53;;
6077;SDS011;3067;49.470;10.394;2023-07-16T13:10:08;2.20;;;1.57;;
6077;SDS011;3067;49.470;10.394;2023-07-16T13:12:35;1.63;;;1.53;;
6077;SDS011;3067;49.470;10.394;2023-07-16T13:15:04;4.30;;;1.57;;
6077;SDS011;3067;49.470;10.394;2023-07-16T13:17:32;1.70;;;1.57;;
6077;SDS011;3067;49.470;10.394;2023-07-16T13:19:59;3.43;;;1.70;;
6077;SDS011;3067;49.470;10.394;2023-07-16T13:22:28;2.03;;;1.90;;
6077;SDS011;3067;49.470;10.394;2023-07-16T13:24:55;2.53;;;1.67;;
6077;SDS011;3067;49.470;10.394;2023-07-16T13:27:22;1.70;;;1.60;;
6077;SDS011;3067;49.470;10.394;2023-07-16T13:29:50;3.00;;;1.73;;
6077;SDS011;3067;49.470;10.394;2023-07-16T13:32:18;1.60;;;1.50;;
6077;SDS011;3067;49.470;10.394;2023-07-16T13:34:46;1.40;;;1.40;;
6077;SDS011;3067;49.470;10.394;2023-07-16T13:37:13;2.40;;;2.20;;
6077;SDS011;3067;49.470;10.394;2023-07-16T13:39:40;3.17;;;1.83;;
6077;SDS011;3067;49.470;10.394;2023-07-16T13:42:08;1.63;;;1.50;;
6077;SDS011;3067;49.470;10.394;2023-07-16T13:44:36;3.13;;;1.43;;
6077;SDS011;3067;49.470;10.394;2023-07-16T13:47:03;1.57;;;1.47;;
6077;SDS011;3067;49.470;10.394;2023-07-16T13:49:32;6.47;;;1.90;;
6077;SDS011;3067;49.470;10.394;2023-07-16T13:51:59;1.53;;;1.43;;
6077;SDS011;3067;49.470;10.394;2023-07-16T13:54:26;4.50;;;1.67;;
6077;SDS011;3067;49.470;10.394;2023-07-16T13:56:54;3.73;;;1.50;;
6077;SDS011;3067;49.470;10.394;2023-07-16T13:59:21;4.80;;;1.60;;
6077;SDS011;3067;49.470;10.394;2023-07-16T14:01:58;1.70;;;1.60;;
6077;SDS011;3067;49.470;10.394;2023-07-16T14:04:25;1.60;;;1.50;;
6077;SDS011;3067;49.470;10.394;2023-07-16T14:06:54;2.10;;;1.57;;
6077;SDS011;3067;49.470;10.394;2023-07-16T14:09:21;2.10;;;1.63;;
6077;SDS011;3067;49.470;10.394;2023-07-16T14:11:49;2.53;;;1.37;;
6077;SDS011;3067;49.470;10.394;2023-07-16T14:14:16;1.50;;;1.50;;
6077;SDS011;3067;49.470;10.394;2023-07-16T14:16:44;1.67;;;1.50;;
6077;SDS011;3067;49.470;10.394;2023-07-16T14:19:11;4.63;;;1.77;;
6077;SDS011;3067;49.470;10.394;2023-07-16T14:21:38;1.60;;;1.50;;
6077;SDS011;3067;49.470;10.394;2023-07-16T14:24:07;1.93;;;1.83;;
6077;SDS011;3067;49.470;10.394;2023-07-16T14:26:35;2.63;;;1.83;;
6077;SDS011;3067;49.470;10.394;2023-07-16T14:29:02;1.63;;;1.50;;
6077;SDS011;3067;49.470;10.394;2023-07-16T14:31:30;1.63;;;1.37;;
6077;SDS011;3067;49.470;10.394;2023-07-16T14:33:58;1.60;;;1.43;;
6077;SDS011;3067;49.470;10.394;2023-07-16T14:36:26;1.77;;;1.67;;
6077;SDS011;3067;49.470;10.394;2023-07-16T14:39:04;4.30;;;1.53;;
6077;SDS011;3067;49.470;10.394;2023-07-16T14:41:33;2.77;;;2.03;;
6077;SDS011;3067;49.470;10.394;2023-07-16T14:44:00;1.70;;;1.60;;
6077;SDS011;3067;49.470;10.394;2023-07-16T14:46:28;1.67;;;1.57;;
6077;SDS011;3067;49.470;10.394;2023-07-16T14:48:55;3.30;;;1.70;;
6077;SDS011;3067;49.470;10.394;2023-07-16T14:51:23;1.60;;;1.53;;
6077;SDS011;3067;49.470;10.394;2023-07-16T14:53:51;2.50;;;1.53;;
6077;SDS011;3067;49.470;10.394;2023-07-16T14:56:18;1.60;;;1.60;;
6077;SDS011;3067;49.470;10.394;2023-07-16T14:58:47;2.00;;;1.80;;
6077;SDS011;3067;49.470;10.394;2023-07-16T15:01:15;1.63;;;1.53;;
6077;SDS011;3067;49.470;10.394;2023-07-16T15:03:42;1.60;;;1.50;;
6077;SDS011;3067;49.470;10.394;2023-07-16T15:06:09;1.80;;;1.70;;